createdAt,value
2023-04-15T00:02:19.701Z,1.02
2023-04-15T00:04:47.559Z,1.60
2023-04-15T00:07:14.909Z,1.45
2023-04-15T00:09:43.055Z,2.00
2023-04-15T00:12:10.907Z,2.90
2023-04-15T00:14:38.709Z,4.60
2023-04-15T00:17:05.746Z,4.82
2023-04-15T00:19:33.306Z,5.03
2023-04-15T00:22:01.914Z,6.30
2023-04-15T00:24:29.384Z,5.75
2023-04-15T00:26:56.599Z,5.88
2023-04-15T00:29:23.680Z,6.82
2023-04-15T00:31:50.983Z,7.18
2023-04-15T00:34:18.078Z,5.68
2023-04-15T00:36:45.149Z,6.10
2023-04-15T00:39:12.469Z,5.65
2023-04-15T00:41:39.849Z,6.20
2023-04-15T00:44:09.341Z,5.75
2023-04-15T00:46:37.127Z,5.82
2023-04-15T00:49:05.189Z,6.40
2023-04-15T00:51:57.138Z,4.82
2023-04-15T00:54:24.510Z,4.28
2023-04-15T00:56:51.676Z,5.72
2023-04-15T00:59:21.794Z,5.47
2023-04-15T01:01:48.895Z,5.97
2023-04-15T01:04:16.661Z,6.18
2023-04-15T01:06:43.829Z,5.35
2023-04-15T01:09:11.908Z,4.70
2023-04-15T01:11:39.993Z,4.60
2023-04-15T01:14:09.442Z,4.63
2023-04-15T01:16:39.827Z,3.38
2023-04-15T01:19:08.853Z,3.60
2023-04-15T01:21:39.746Z,4.00
2023-04-15T01:24:11.074Z,5.70
2023-04-15T01:26:39.263Z,1.65
2023-04-15T01:29:08.496Z,1.80
2023-04-15T01:31:37.595Z,3.20
2023-04-15T01:34:24.745Z,3.72
2023-04-15T01:37:12.728Z,4.00
2023-04-15T01:39:40.454Z,3.95
2023-04-15T01:42:09.112Z,4.45
2023-04-15T01:44:37.467Z,4.38
2023-04-15T01:47:06.913Z,4.25
2023-04-15T01:49:35.624Z,3.50
2023-04-15T01:52:03.992Z,3.60
2023-04-15T01:54:32.242Z,3.95
2023-04-15T01:57:00.996Z,3.63
2023-04-15T01:59:31.382Z,3.45
2023-04-15T02:02:00.513Z,4.13
2023-04-15T02:04:29.471Z,3.50
2023-04-15T02:07:01.779Z,3.08
2023-04-15T02:09:31.064Z,3.60
2023-04-15T02:12:00.981Z,3.42
2023-04-15T02:14:30.376Z,3.40
2023-04-15T02:17:06.608Z,3.60
2023-04-15T02:19:35.681Z,3.53
2023-04-15T02:22:05.104Z,3.40
2023-04-15T02:24:34.850Z,3.25
2023-04-15T02:27:04.745Z,2.80
2023-04-15T02:29:33.122Z,3.70
2023-04-15T02:32:02.940Z,3.53
2023-04-15T02:34:32.441Z,3.55
2023-04-15T02:37:01.280Z,3.58
2023-04-15T02:39:29.489Z,4.32
2023-04-15T02:41:59.202Z,3.92
2023-04-15T02:44:28.114Z,4.35
2023-04-15T02:47:00.474Z,4.28
2023-04-15T02:49:31.211Z,4.63
2023-04-15T02:52:00.592Z,4.43
2023-04-15T02:54:28.930Z,4.68
2023-04-15T02:56:57.467Z,4.03
2023-04-15T02:59:25.800Z,4.90
2023-04-15T03:01:56.516Z,5.85
2023-04-15T03:04:24.981Z,5.00
2023-04-15T03:06:53.236Z,5.95
2023-04-15T03:09:22.124Z,6.32
2023-04-15T03:11:53.538Z,7.15
2023-04-15T03:14:22.778Z,6.75
2023-04-15T03:16:52.024Z,7.22
2023-04-15T03:19:20.959Z,6.90
2023-04-15T03:21:49.240Z,7.18
2023-04-15T03:24:18.217Z,6.32
2023-04-15T03:26:46.764Z,6.78
2023-04-15T03:29:18.016Z,6.22
2023-04-15T03:31:46.968Z,6.30
2023-04-15T03:34:15.379Z,6.65
2023-04-15T03:36:43.748Z,6.93
2023-04-15T03:39:12.383Z,7.72
2023-04-15T03:41:40.657Z,7.75
2023-04-15T03:44:08.977Z,8.27
2023-04-15T03:46:37.794Z,7.50
2023-04-15T03:49:07.210Z,8.07
2023-04-15T03:51:36.226Z,7.35
2023-04-15T03:54:04.861Z,7.60
2023-04-15T03:56:33.149Z,7.85
2023-04-15T03:59:02.070Z,7.50
2023-04-15T04:01:30.743Z,7.63
2023-04-15T04:03:59.026Z,7.30
2023-04-15T04:06:27.846Z,7.03
2023-04-15T04:08:56.739Z,7.07
2023-04-15T04:11:24.972Z,7.60
2023-04-15T04:13:53.838Z,8.30
2023-04-15T04:16:22.204Z,8.00
2023-04-15T04:18:50.579Z,8.05
2023-04-15T04:21:18.786Z,7.50
2023-04-15T04:23:47.184Z,7.70
2023-04-15T04:26:15.426Z,9.20
2023-04-15T04:28:43.732Z,8.32
2023-04-15T04:31:12.187Z,8.68
2023-04-15T04:33:40.695Z,8.80
2023-04-15T04:36:09.084Z,9.10
2023-04-15T04:38:37.893Z,8.82
2023-04-15T04:41:06.278Z,9.00
2023-04-15T04:43:35.054Z,10.48
2023-04-15T04:46:03.848Z,8.77
2023-04-15T04:48:32.389Z,8.85
2023-04-15T04:51:01.105Z,8.60
2023-04-15T04:53:29.972Z,7.90
2023-04-15T04:55:58.360Z,9.38
2023-04-15T04:58:27.322Z,8.38
2023-04-15T05:00:55.877Z,8.68
2023-04-15T05:03:24.365Z,13.02
2023-04-15T05:05:52.933Z,14.02
2023-04-15T05:08:21.511Z,13.93
2023-04-15T05:10:49.772Z,15.45
2023-04-15T05:13:18.051Z,17.13
2023-04-15T05:15:46.340Z,17.98
2023-04-15T05:18:14.727Z,18.02
2023-04-15T05:20:45.324Z,16.45
2023-04-15T05:23:16.716Z,14.85
2023-04-15T05:25:45.205Z,14.98
2023-04-15T05:28:13.469Z,13.98
2023-04-15T05:30:46.220Z,14.35
2023-04-15T05:33:14.580Z,14.45
2023-04-15T05:35:46.074Z,15.85
2023-04-15T05:38:14.310Z,16.40
2023-04-15T05:40:42.620Z,15.85
2023-04-15T05:43:11.084Z,16.25
2023-04-15T05:45:42.060Z,17.83
2023-04-15T05:48:10.313Z,20.45
2023-04-15T05:50:41.674Z,15.70
2023-04-15T05:53:09.997Z,16.20
2023-04-15T05:55:38.421Z,16.15
2023-04-15T05:58:06.930Z,17.25
2023-04-15T06:00:35.206Z,22.23
2023-04-15T06:03:04.113Z,19.13
2023-04-15T06:05:33.441Z,16.60
2023-04-15T06:08:02.338Z,17.73
2023-04-15T06:10:31.006Z,18.10
2023-04-15T06:12:59.813Z,16.80
2023-04-15T06:15:28.102Z,16.95
2023-04-15T06:17:56.649Z,15.48
2023-04-15T06:20:25.781Z,16.15
2023-04-15T06:22:54.068Z,16.58
2023-04-15T06:25:22.620Z,13.23
2023-04-15T06:27:50.981Z,12.45
2023-04-15T06:30:19.351Z,7.90
2023-04-15T06:32:47.627Z,6.63
2023-04-15T06:35:16.092Z,4.00
2023-04-15T06:37:44.370Z,4.18
2023-04-15T06:40:13.262Z,4.63
2023-04-15T06:42:42.097Z,4.50
2023-04-15T06:45:10.980Z,3.22
2023-04-15T06:47:39.246Z,2.33
2023-04-15T06:50:09.860Z,2.55
2023-04-15T06:52:38.539Z,1.65
2023-04-15T06:55:08.097Z,1.80
2023-04-15T06:57:37.014Z,1.48
2023-04-15T07:00:05.855Z,0.90
2023-04-15T07:02:34.499Z,0.90
2023-04-15T07:05:02.813Z,0.68
2023-04-15T07:07:31.186Z,0.80
2023-04-15T07:09:59.980Z,0.73
2023-04-15T07:12:28.253Z,0.82
2023-04-15T07:14:56.664Z,0.70
2023-04-15T07:17:25.115Z,0.90
2023-04-15T07:19:54.282Z,1.08
2023-04-15T07:22:24.917Z,0.80
2023-04-15T07:24:55.587Z,0.93
2023-04-15T07:27:24.138Z,0.90
2023-04-15T07:29:53.242Z,0.70
2023-04-15T07:32:22.024Z,0.65
2023-04-15T07:34:50.778Z,0.60
2023-04-15T07:37:22.366Z,0.70
2023-04-15T07:39:51.361Z,0.60
2023-04-15T07:42:19.700Z,0.60
2023-04-15T07:44:47.915Z,0.50
2023-04-15T07:47:16.467Z,0.57
2023-04-15T07:49:45.231Z,0.70
2023-04-15T07:52:15.526Z,0.65
2023-04-15T07:54:43.789Z,0.70
2023-04-15T07:57:13.222Z,0.60
2023-04-15T07:59:41.840Z,0.70
2023-04-15T08:02:14.366Z,0.70
2023-04-15T08:04:43.284Z,0.80
2023-04-15T08:07:11.848Z,0.70
2023-04-15T08:09:40.494Z,0.82
2023-04-15T08:12:12.481Z,0.80
2023-04-15T08:14:40.952Z,0.63
2023-04-15T08:17:12.053Z,0.90
2023-04-15T08:19:41.102Z,0.82
2023-04-15T08:22:10.511Z,1.33
2023-04-15T08:24:46.628Z,1.70
2023-04-15T08:27:14.966Z,1.90
2023-04-15T08:29:43.266Z,1.67
2023-04-15T08:32:14.959Z,1.10
2023-04-15T08:34:48.722Z,1.10
2023-04-15T08:37:17.079Z,1.05
2023-04-15T08:39:46.216Z,1.17
2023-04-15T08:42:25.063Z,1.40
2023-04-15T08:44:55.781Z,1.20
2023-04-15T08:47:24.888Z,1.30
2023-04-15T08:49:55.467Z,1.40
2023-04-15T08:52:28.937Z,1.50
2023-04-15T08:55:04.997Z,2.10
2023-04-15T08:57:33.523Z,1.70
2023-04-15T09:00:05.315Z,1.40
2023-04-15T09:02:36.782Z,2.00
2023-04-15T09:05:11.435Z,1.63
2023-04-15T09:07:40.673Z,1.98
2023-04-15T09:10:09.692Z,1.50
2023-04-15T09:12:41.603Z,1.95
2023-04-15T09:15:12.203Z,1.33
2023-04-15T09:17:44.572Z,1.73
2023-04-15T09:20:14.890Z,1.52
2023-04-15T09:22:48.260Z,1.58
2023-04-15T09:25:34.831Z,1.83
2023-04-15T09:28:04.946Z,1.88
2023-04-15T09:30:33.908Z,1.65
2023-04-15T09:33:03.083Z,1.88
2023-04-15T09:35:35.456Z,1.88
2023-04-15T09:38:13.212Z,1.75
2023-04-15T09:40:42.079Z,1.63
2023-04-15T09:43:13.097Z,1.83
2023-04-15T09:45:53.141Z,2.00
2023-04-15T09:48:23.509Z,1.90
2023-04-15T09:50:53.652Z,1.50
2023-04-15T09:53:22.591Z,1.70
2023-04-15T09:55:57.002Z,1.75
2023-04-15T09:58:26.772Z,2.10
2023-04-15T10:01:04.023Z,2.20
2023-04-15T10:03:35.642Z,2.13
2023-04-15T10:06:05.594Z,2.20
2023-04-15T10:08:41.719Z,2.15
2023-04-15T10:11:09.932Z,1.80
2023-04-15T10:13:38.239Z,1.48
2023-04-15T10:16:16.279Z,1.63
2023-04-15T10:18:48.030Z,1.38
2023-04-15T10:21:18.638Z,1.27
2023-04-15T10:23:47.047Z,1.30
2023-04-15T10:26:22.991Z,1.20
2023-04-15T10:28:54.872Z,1.33
2023-04-15T10:31:23.212Z,1.40
2023-04-15T10:33:51.506Z,1.40
2023-04-15T10:36:20.167Z,1.30
2023-04-15T10:38:49.993Z,1.25
2023-04-15T10:41:22.065Z,1.50
2023-04-15T10:44:10.816Z,1.45
2023-04-15T10:46:40.584Z,1.17
2023-04-15T10:49:17.041Z,1.30
2023-04-15T10:51:46.921Z,1.30
2023-04-15T10:54:33.904Z,1.45
2023-04-15T10:57:06.046Z,1.10
2023-04-15T10:59:58.298Z,1.27
2023-04-15T11:02:54.172Z,1.30
2023-04-15T11:05:41.864Z,1.40
2023-04-15T11:08:10.753Z,1.42
2023-04-15T11:10:42.395Z,1.80
2023-04-15T11:13:17.834Z,1.85
2023-04-15T11:15:47.007Z,1.60
2023-04-15T11:18:16.781Z,2.10
2023-04-15T11:20:47.272Z,2.35
2023-04-15T11:23:16.089Z,1.73
2023-04-15T11:25:44.586Z,1.70
2023-04-15T11:28:13.232Z,1.65
2023-04-15T11:30:42.602Z,1.48
2023-04-15T11:33:12.567Z,1.52
2023-04-15T11:35:44.144Z,1.67
2023-04-15T11:38:13.835Z,2.35
2023-04-15T11:40:45.298Z,1.85
2023-04-15T11:43:22.497Z,1.95
2023-04-15T11:45:55.609Z,1.40
2023-04-15T11:48:29.036Z,1.65
2023-04-15T11:51:02.564Z,1.85
2023-04-15T11:53:43.889Z,1.90
2023-04-15T11:56:12.239Z,1.67
2023-04-15T11:58:41.664Z,1.65
2023-04-15T12:01:08.805Z,1.60
2023-04-15T12:03:49.312Z,2.00
2023-04-15T12:06:21.876Z,1.83
2023-04-15T12:09:02.812Z,2.10
2023-04-15T12:11:31.929Z,1.90
2023-04-15T12:14:11.944Z,1.60
2023-04-15T12:16:48.747Z,2.42
2023-04-15T12:19:19.317Z,2.00
2023-04-15T12:21:48.054Z,1.88
2023-04-15T12:24:15.430Z,1.90
2023-04-15T12:26:47.101Z,1.80
2023-04-15T12:29:15.342Z,2.13
2023-04-15T12:32:14.261Z,2.35
2023-04-15T12:34:43.007Z,4.47
2023-04-15T12:37:11.660Z,2.10
2023-04-15T12:39:39.767Z,2.15
2023-04-15T12:42:06.900Z,1.85
2023-04-15T12:44:37.800Z,2.15
2023-04-15T12:47:04.961Z,2.30
2023-04-15T12:49:33.541Z,1.90
2023-04-15T12:52:01.606Z,2.33
2023-04-15T12:54:29.850Z,1.90
2023-04-15T12:56:56.994Z,1.88
2023-04-15T12:59:24.358Z,2.30
2023-04-15T13:01:54.286Z,1.67
2023-04-15T13:04:22.084Z,1.90
2023-04-15T13:06:49.515Z,2.10
2023-04-15T13:09:16.636Z,2.30
2023-04-15T13:11:43.857Z,1.80
2023-04-15T13:14:13.768Z,2.45
2023-04-15T13:16:41.488Z,2.00
2023-04-15T13:19:08.730Z,2.08
2023-04-15T13:21:36.443Z,2.25
2023-04-15T13:24:04.809Z,2.80
2023-04-15T13:26:32.294Z,3.20
2023-04-15T13:29:01.325Z,3.70
2023-04-15T13:31:32.183Z,7.85
2023-04-15T13:33:59.280Z,5.68
2023-04-15T13:36:27.904Z,7.13
2023-04-15T13:38:56.079Z,3.15
2023-04-15T13:41:23.089Z,4.15
2023-04-15T13:43:50.843Z,3.45
2023-04-15T13:46:19.020Z,2.72
2023-04-15T13:48:46.668Z,2.90
2023-04-15T13:51:13.687Z,5.72
2023-04-15T13:53:41.836Z,4.47
2023-04-15T13:56:09.101Z,4.32
2023-04-15T13:58:39.881Z,2.95
2023-04-15T14:01:07.454Z,2.70
2023-04-15T14:03:38.338Z,2.67
2023-04-15T14:06:07.790Z,2.60
2023-04-15T14:08:34.985Z,2.50
2023-04-15T14:11:05.524Z,2.33
2023-04-15T14:13:36.757Z,2.20
2023-04-15T14:16:07.460Z,2.88
2023-04-15T14:18:35.253Z,2.42
2023-04-15T14:21:02.859Z,2.70
2023-04-15T14:23:29.919Z,2.50
2023-04-15T14:25:56.961Z,2.30
2023-04-15T14:28:24.960Z,2.88
2023-04-15T14:30:52.226Z,2.38
2023-04-15T14:33:25.078Z,2.72
2023-04-15T14:35:59.634Z,1.98
2023-04-15T14:38:26.878Z,1.88
2023-04-15T14:40:54.904Z,2.63
2023-04-15T14:43:23.335Z,2.10
2023-04-15T14:45:51.625Z,2.55
2023-04-15T14:48:20.676Z,2.88
2023-04-15T14:50:47.742Z,3.28
2023-04-15T14:53:14.789Z,2.95
2023-04-15T14:55:42.110Z,2.72
2023-04-15T14:58:09.744Z,2.63
2023-04-15T15:00:40.351Z,2.38
2023-04-15T15:03:13.021Z,2.85
2023-04-15T15:05:44.786Z,3.00
2023-04-15T15:08:12.260Z,2.67
2023-04-15T15:10:48.692Z,3.03
2023-04-15T15:13:17.306Z,2.88
2023-04-15T15:15:44.441Z,3.10
2023-04-15T15:18:11.626Z,3.25
2023-04-15T15:20:38.786Z,2.95
2023-04-15T15:23:05.777Z,3.25
2023-04-15T15:25:32.817Z,3.40
2023-04-15T15:28:00.286Z,4.32
2023-04-15T15:30:27.389Z,3.92
2023-04-15T15:32:54.540Z,3.10
2023-04-15T15:35:23.131Z,3.05
2023-04-15T15:37:50.282Z,3.00
2023-04-15T15:40:42.759Z,3.00
2023-04-15T15:43:09.850Z,2.63
2023-04-15T15:45:36.857Z,2.85
2023-04-15T15:48:04.375Z,2.47
2023-04-15T15:50:31.619Z,2.17
2023-04-15T15:52:58.746Z,2.50
2023-04-15T15:55:27.196Z,2.60
2023-04-15T15:57:54.437Z,3.28
2023-04-15T16:00:23.029Z,4.57
2023-04-15T16:03:06.103Z,2.78
2023-04-15T16:08:02.808Z,2.90
2023-04-15T16:10:29.972Z,2.33
2023-04-15T16:12:59.693Z,3.00
2023-04-15T16:15:27.724Z,3.30
2023-04-15T16:17:54.707Z,2.88
2023-04-15T16:20:22.270Z,3.20
2023-04-15T16:22:49.926Z,3.50
2023-04-15T16:25:18.054Z,3.70
2023-04-15T16:27:57.664Z,4.10
2023-04-15T16:30:26.857Z,5.57
2023-04-15T16:32:54.840Z,6.35
2023-04-15T16:35:22.201Z,6.00
2023-04-15T16:37:49.212Z,6.70
2023-04-15T16:40:16.805Z,5.97
2023-04-15T16:42:43.849Z,7.20
2023-04-15T16:45:11.136Z,6.13
2023-04-15T16:47:38.183Z,5.78
2023-04-15T16:50:05.622Z,6.18
2023-04-15T16:52:32.642Z,6.53
2023-04-15T16:55:00.575Z,7.45
2023-04-15T16:57:54.052Z,7.30
2023-04-15T17:00:15.935Z,7.65
2023-04-15T17:02:43.167Z,7.03
2023-04-15T17:05:11.395Z,7.03
2023-04-15T17:07:38.963Z,7.38
2023-04-15T17:10:06.529Z,7.50
2023-04-15T17:12:33.589Z,7.15
2023-04-15T17:15:01.298Z,8.30
2023-04-15T17:17:30.768Z,7.80
2023-04-15T17:19:58.807Z,8.73
2023-04-15T17:22:27.408Z,8.18
2023-04-15T17:24:54.448Z,8.00
2023-04-15T17:27:22.746Z,7.97
2023-04-15T17:29:50.031Z,8.00
2023-04-15T17:32:40.367Z,7.60
2023-04-15T17:35:27.895Z,8.65
2023-04-15T17:38:14.903Z,7.75
2023-04-15T17:41:01.884Z,8.52
2023-04-15T17:43:49.546Z,8.13
2023-04-15T17:46:36.926Z,8.88
2023-04-15T17:49:27.083Z,9.95
2023-04-15T17:52:14.428Z,11.68
2023-04-15T17:55:23.322Z,13.45
2023-04-15T17:58:27.740Z,11.90
2023-04-15T18:01:21.303Z,11.18
2023-04-15T18:04:09.195Z,12.65
2023-04-15T18:06:57.937Z,11.50
2023-04-15T18:09:46.396Z,11.13
2023-04-15T18:12:35.415Z,11.27
2023-04-15T18:15:25.057Z,10.20
2023-04-15T18:18:17.987Z,9.98
2023-04-15T18:21:07.152Z,9.75
2023-04-15T18:23:37.433Z,11.23
2023-04-15T18:26:09.963Z,10.85
2023-04-15T18:28:41.954Z,11.48
2023-04-15T18:31:13.814Z,11.05
2023-04-15T18:33:41.861Z,11.43
2023-04-15T18:36:12.665Z,11.52
2023-04-15T18:38:40.134Z,5.78
2023-04-15T18:41:09.982Z,3.90
2023-04-15T18:43:38.197Z,4.22
2023-04-15T18:46:17.226Z,2.25
2023-04-15T18:48:49.571Z,1.45
2023-04-15T18:51:17.706Z,1.27
2023-04-15T18:53:46.905Z,1.63
2023-04-15T18:56:18.556Z,1.35
2023-04-15T18:59:25.864Z,4.22
2023-04-15T19:01:46.987Z,3.92
2023-04-15T19:04:25.430Z,3.53
2023-04-15T19:07:01.512Z,3.22
2023-04-15T19:09:34.381Z,4.70
2023-04-15T19:12:30.186Z,5.95
2023-04-15T19:15:01.830Z,6.50
2023-04-15T19:17:32.871Z,8.25
2023-04-15T19:20:24.063Z,8.85
2023-04-15T19:22:59.549Z,10.55
2023-04-15T19:25:36.224Z,11.23
2023-04-15T19:28:13.005Z,11.50
2023-04-15T19:31:14.308Z,11.45
2023-04-15T19:33:42.858Z,11.98
2023-04-15T19:36:17.012Z,11.82
2023-04-15T19:38:45.402Z,11.18
2023-04-15T19:41:19.449Z,11.48
2023-04-15T19:43:49.618Z,12.30
2023-04-15T19:46:20.258Z,11.73
2023-04-15T19:48:52.107Z,12.53
2023-04-15T19:51:19.330Z,12.20
2023-04-15T19:53:47.278Z,11.82
2023-04-15T19:56:17.020Z,11.88
2023-04-15T19:58:52.817Z,12.48
2023-04-15T20:01:21.461Z,12.50
2023-04-15T20:03:50.448Z,12.80
2023-04-15T20:06:17.613Z,14.13
2023-04-15T20:08:45.938Z,13.20
2023-04-15T20:11:13.076Z,14.63
2023-04-15T20:13:42.409Z,14.50
2023-04-15T20:16:09.811Z,14.32
2023-04-15T20:18:37.001Z,15.57
2023-04-15T20:21:04.097Z,15.45
2023-04-15T20:23:31.204Z,15.38
2023-04-15T20:25:58.245Z,15.57
2023-04-15T20:28:27.505Z,15.05
2023-04-15T20:30:54.985Z,15.98
2023-04-15T20:33:22.890Z,13.38
2023-04-15T20:35:50.025Z,13.30
2023-04-15T20:38:17.836Z,12.65
2023-04-15T20:40:44.908Z,11.75
2023-04-15T20:43:11.966Z,12.13
2023-04-15T20:45:39.979Z,11.90
2023-04-15T20:48:07.178Z,12.73
2023-04-15T20:50:34.911Z,13.25
2023-04-15T20:53:05.161Z,13.02
2023-04-15T20:55:32.965Z,12.75
2023-04-15T20:58:00.142Z,11.63
2023-04-15T21:00:27.928Z,11.65
2023-04-15T21:02:56.050Z,11.90
2023-04-15T21:05:23.278Z,11.10
2023-04-15T21:07:51.052Z,10.30
2023-04-15T21:10:18.314Z,11.13
2023-04-15T21:12:45.421Z,10.93
2023-04-15T21:15:13.695Z,10.10
2023-04-15T21:17:41.830Z,9.30
2023-04-15T21:20:11.103Z,9.65
2023-04-15T21:22:42.044Z,10.07
2023-04-15T21:25:09.781Z,10.13
2023-04-15T21:27:36.848Z,8.27
2023-04-15T21:30:06.274Z,8.85
2023-04-15T21:32:33.612Z,8.57
2023-04-15T21:35:00.625Z,8.27
2023-04-15T21:37:32.696Z,7.57
2023-04-15T21:40:01.338Z,8.18
2023-04-15T21:42:29.994Z,7.88
2023-04-15T21:45:00.215Z,8.07
2023-04-15T21:47:28.888Z,8.98
2023-04-15T21:49:57.334Z,10.63
2023-04-15T21:52:24.503Z,11.18
2023-04-15T21:54:52.537Z,9.75
2023-04-15T21:57:19.927Z,8.68
2023-04-15T21:59:47.714Z,7.63
2023-04-15T22:02:14.758Z,8.60
2023-04-15T22:04:45.400Z,7.75
2023-04-15T22:07:15.556Z,6.88
2023-04-15T22:09:42.674Z,6.85
2023-04-15T22:14:53.919Z,6.00
2023-04-15T22:17:22.375Z,6.55
2023-04-15T22:19:51.788Z,6.53
2023-04-15T22:22:19.672Z,7.75
2023-04-15T22:24:51.376Z,11.00
2023-04-15T22:27:18.441Z,7.43
2023-04-15T22:29:45.423Z,7.40
2023-04-15T22:32:12.623Z,8.02
2023-04-15T22:34:39.891Z,7.32
2023-04-15T22:37:06.939Z,7.68
2023-04-15T22:39:34.754Z,7.20
2023-04-15T22:42:02.111Z,7.93
2023-04-15T22:44:32.286Z,7.82
2023-04-15T22:46:59.423Z,7.35
2023-04-15T22:49:27.001Z,7.45
2023-04-15T22:51:54.649Z,7.47
2023-04-15T22:54:22.196Z,7.43
2023-04-15T22:56:49.211Z,6.45
2023-04-15T22:59:16.208Z,6.35
2023-04-15T23:01:43.298Z,6.80
2023-04-15T23:04:25.720Z,6.53
2023-04-15T23:06:56.885Z,6.72
2023-04-15T23:09:23.962Z,6.18
2023-04-15T23:11:52.031Z,6.28
2023-04-15T23:14:20.144Z,6.35
2023-04-15T23:16:47.113Z,6.10
2023-04-15T23:19:14.072Z,6.85
2023-04-15T23:21:41.154Z,6.43
2023-04-15T23:24:08.247Z,6.82
2023-04-15T23:26:35.924Z,5.90
2023-04-15T23:29:04.022Z,6.10
2023-04-15T23:31:31.362Z,6.50
2023-04-15T23:33:58.385Z,6.57
2023-04-15T23:36:25.878Z,6.05
2023-04-15T23:38:52.927Z,6.72
2023-04-15T23:41:19.964Z,6.75
2023-04-15T23:43:47.513Z,7.13
2023-04-15T23:46:14.473Z,9.18
2023-04-15T23:48:41.955Z,10.40
2023-04-15T23:51:09.055Z,10.85
2023-04-15T23:53:36.329Z,11.90
2023-04-15T23:56:03.871Z,11.63
2023-04-15T23:58:32.246Z,10.40
